Time;durP1;ratioP1;P1;durP2;ratioP2;P2;SDS_P1;SDS_P2;PMS_P1;PMS_P2;Temp;Humidity;BMP_temperature;BMP_pressure;BME280_temperature;BME280_humidity;BME280_pressure;Samples;Min_cycle;Max_cycle;Signal;HPM_P1;HPM_P2
2024/01/02 00:01:11;;;;;;;8.80;4.10;;;;;;;-146.82;100.00;71671.09;5061645;28;20035;-79
2024/01/02 00:03:37;;;;;;;7.20;3.53;;;;;;;-146.82;100.00;71671.09;5062869;28;20360;-79
2024/01/02 00:06:03;;;;;;;8.95;3.08;;;;;;;-146.82;100.00;71671.09;5060459;28;20039;-78
2024/01/02 00:08:32;;;;;;;5.68;3.40;;;;;;;-146.82;100.00;71671.09;5060719;28;20120;-78
2024/01/02 00:10:58;;;;;;;4.95;2.42;;;;;;;-146.82;100.00;71671.09;5057644;28;20020;-78
2024/01/02 00:13:24;;;;;;;8.25;2.88;;;;;;;-146.82;100.00;71671.09;5058565;28;20024;-77
2024/01/02 00:15:49;;;;;;;5.90;2.22;;;;;;;-146.82;100.00;71671.09;5063543;28;20029;-76
2024/01/02 00:18:15;;;;;;;4.55;2.42;;;;;;;-146.82;100.00;71671.09;5055532;28;20028;-77
2024/01/02 00:20:40;;;;;;;5.47;2.15;;;;;;;-146.82;100.00;71671.09;5057908;28;20113;-78
2024/01/02 00:23:05;;;;;;;6.63;2.20;;;;;;;-146.82;100.00;71671.09;5065107;28;20021;-78
2024/01/02 00:25:31;;;;;;;3.22;1.67;;;;;;;-146.82;100.00;71671.09;5063215;28;20008;-78
2024/01/02 00:28:03;;;;;;;4.53;2.03;;;;;;;-146.82;100.00;71671.09;5063942;28;20044;-78
2024/01/02 00:30:31;;;;;;;;;;;;;;;-146.82;100.00;71671.09;5067138;28;20021;-75
2024/01/02 00:33:03;;;;;;;4.32;1.60;;;;;;;-146.82;100.00;71671.09;5066479;28;19909;-75
2024/01/02 00:35:39;;;;;;;2.15;0.70;;;;;;;-146.82;100.00;71671.09;5066313;28;20537;-75
2024/01/02 00:38:10;;;;;;;6.53;0.80;;;;;;;-146.82;100.00;71671.09;5057607;28;20103;-76
2024/01/02 00:40:35;;;;;;;1.30;0.80;;;;;;;-146.82;100.00;71671.09;5063562;28;20060;-75
2024/01/02 00:43:02;;;;;;;2.30;0.80;;;;;;;-146.82;100.00;71671.09;5061551;28;20560;-76
2024/01/02 00:45:31;;;;;;;1.10;0.80;;;;;;;-146.82;100.00;71671.09;5052486;28;20366;-76
2024/01/02 00:47:56;;;;;;;2.20;0.77;;;;;;;-146.82;100.00;71671.09;5069000;28;20115;-76
2024/01/02 00:50:24;;;;;;;1.90;0.80;;;;;;;-146.82;100.00;71671.09;5062652;28;20464;-77
2024/01/02 00:52:49;;;;;;;3.45;0.80;;;;;;;-146.82;100.00;71671.09;5060886;28;20032;-77
2024/01/02 00:55:16;;;;;;;2.83;1.10;;;;;;;-146.82;100.00;71671.09;5067974;28;20040;-77
2024/01/02 00:57:43;;;;;;;2.13;1.00;;;;;;;-146.82;100.00;71671.09;5063834;28;20025;-77
2024/01/02 01:00:11;;;;;;;1.90;1.10;;;;;;;-146.82;100.00;71671.09;5069935;28;20021;-75
2024/01/02 01:02:39;;;;;;;3.58;1.00;;;;;;;-146.82;100.00;71671.09;5062030;28;20021;-78
2024/01/02 01:05:07;;;;;;;5.53;1.38;;;;;;;-146.82;100.00;71671.09;5063575;28;20043;-74
2024/01/02 01:07:32;;;;;;;2.70;1.00;;;;;;;-146.82;100.00;71671.09;5063590;28;20132;-76
2024/01/02 01:09:59;;;;;;;6.35;1.33;;;;;;;-146.82;100.00;71671.09;5065852;28;20580;-76
2024/01/02 01:12:26;;;;;;;4.68;1.38;;;;;;;-146.82;100.00;71671.09;5068382;28;20017;-75
2024/01/02 01:14:54;;;;;;;6.68;1.40;;;;;;;-146.82;100.00;71671.09;5067220;28;20012;-76
2024/01/02 01:17:20;;;;;;;4.50;1.40;;;;;;;-146.82;100.00;71671.09;5063431;28;20017;-77
2024/01/02 01:19:48;;;;;;;7.22;1.40;;;;;;;-146.82;100.00;71671.09;5064193;28;20483;-76
2024/01/02 01:22:14;;;;;;;5.55;1.60;;;;;;;-146.82;100.00;71671.09;5066937;28;20032;-76
2024/01/02 01:24:40;;;;;;;5.75;1.40;;;;;;;-146.82;100.00;71671.09;5064145;28;20021;-76
2024/01/02 01:27:06;;;;;;;6.78;2.10;;;;;;;-146.82;100.00;71671.09;5065645;28;20037;-75
2024/01/02 01:29:32;;;;;;;6.57;1.38;;;;;;;-146.82;100.00;71671.09;5058462;28;20132;-76
2024/01/02 01:31:59;;;;;;;9.82;2.08;;;;;;;-146.82;100.00;71671.09;5067325;28;20466;-75
2024/01/02 01:34:25;;;;;;;6.00;2.35;;;;;;;-146.82;100.00;71671.09;5067706;28;20020;-74
2024/01/02 01:36:54;;;;;;;6.00;1.27;;;;;;;-146.82;100.00;71671.09;5062906;28;20107;-75
2024/01/02 01:39:20;;;;;;;5.60;1.40;;;;;;;-146.82;100.00;71671.09;5068519;28;20481;-74
2024/01/02 01:41:48;;;;;;;9.98;2.10;;;;;;;-146.82;100.00;71671.09;5063885;28;20048;-75
2024/01/02 01:44:14;;;;;;;9.75;1.85;;;;;;;-146.82;100.00;71671.09;5063777;28;20116;-76
2024/01/02 01:46:40;;;;;;;8.23;2.00;;;;;;;-146.82;100.00;71671.09;5063919;28;20489;-76
2024/01/02 01:49:08;;;;;;;7.65;2.08;;;;;;;-146.82;100.00;71671.09;5062096;28;20024;-76
2024/01/02 01:51:39;;;;;;;6.53;2.25;;;;;;;-146.82;100.00;71671.09;5062449;28;20029;-75
2024/01/02 01:54:05;;;;;;;10.37;2.13;;;;;;;-146.82;100.00;71671.09;5059896;28;20128;-76
2024/01/02 01:56:33;;;;;;;5.70;2.10;;;;;;;-146.82;100.00;71671.09;5064024;28;20266;-76
2024/01/02 01:59:00;;;;;;;7.13;2.50;;;;;;;-146.82;100.00;71671.09;5050670;28;20108;-77
2024/01/02 02:01:42;;;;;;;9.35;2.10;;;;;;;-146.82;100.00;71671.09;5057911;28;20101;-76
2024/01/02 02:04:15;;;;;;;7.18;1.77;;;;;;;-146.82;100.00;71671.09;5040688;28;20018;-76
2024/01/02 02:06:40;;;;;;;8.20;1.80;;;;;;;-146.82;100.00;71671.09;5057637;28;20029;-75
2024/01/02 02:09:07;;;;;;;6.40;2.50;;;;;;;-146.82;100.00;71671.09;5067814;28;20373;-75
2024/01/02 02:11:33;;;;;;;8.35;2.60;;;;;;;-146.82;100.00;71671.09;5065425;28;20035;-75
2024/01/02 02:14:02;;;;;;;5.47;2.35;;;;;;;-146.82;100.00;71671.09;5060522;28;20029;-76
2024/01/02 02:16:28;;;;;;;4.28;2.15;;;;;;;-146.82;100.00;71671.09;5061963;28;20049;-76
2024/01/02 02:19:01;;;;;;;9.27;2.38;;;;;;;-146.82;100.00;71671.09;5054058;28;20021;-75
2024/01/02 02:21:28;;;;;;;7.45;2.13;;;;;;;-146.82;100.00;71671.09;5065012;28;20021;-76
2024/01/02 02:24:04;;;;;;;12.02;2.30;;;;;;;-146.82;100.00;71671.09;5059010;28;20017;-74
2024/01/02 02:26:31;;;;;;;7.30;3.05;;;;;;;-146.82;100.00;71671.09;5060174;28;20063;-77
2024/01/02 02:29:14;;;;;;;7.80;2.58;;;;;;;-146.82;100.00;71671.09;5063832;28;20036;-75
2024/01/02 02:31:40;;;;;;;8.18;2.92;;;;;;;-146.82;100.00;71671.09;5064079;28;20405;-75
2024/01/02 02:34:06;;;;;;;8.02;2.90;;;;;;;-146.82;100.00;71671.09;5067839;28;20055;-77
2024/01/02 02:36:32;;;;;;;6.00;2.58;;;;;;;-146.82;100.00;71671.09;5064741;28;20036;-77
2024/01/02 02:38:59;;;;;;;12.95;2.92;;;;;;;-146.82;100.00;71671.09;5065368;28;20476;-75
2024/01/02 02:41:26;;;;;;;7.70;2.38;;;;;;;-146.82;100.00;71671.09;5064845;28;20024;-75
2024/01/02 02:43:52;;;;;;;9.48;2.45;;;;;;;-146.82;100.00;71671.09;5060649;28;20083;-75
2024/01/02 02:46:19;;;;;;;7.88;2.60;;;;;;;-146.82;100.00;71671.09;5064249;28;20025;-77
2024/01/02 02:48:45;;;;;;;8.07;1.90;;;;;;;-146.82;100.00;71671.09;5068676;28;20028;-75
2024/01/02 02:51:11;;;;;;;5.75;1.98;;;;;;;-146.82;100.00;71671.09;5066028;28;20032;-77
2024/01/02 02:53:36;;;;;;;7.95;2.25;;;;;;;-146.82;100.00;71671.09;5061084;28;20362;-76
2024/01/02 02:56:04;;;;;;;7.60;2.15;;;;;;;-146.82;100.00;71671.09;5065083;28;20358;-75
2024/01/02 02:58:33;;;;;;;5.88;1.90;;;;;;;-146.82;100.00;71671.09;5063837;28;21099;-76
2024/01/02 03:01:00;;;;;;;6.43;2.58;;;;;;;-146.82;100.00;71671.09;5053346;28;20104;-76
2024/01/02 03:03:26;;;;;;;7.63;2.53;;;;;;;-146.82;100.00;71671.09;5066374;28;20112;-75
2024/01/02 03:05:51;;;;;;;8.07;2.13;;;;;;;-146.82;100.00;71671.09;5065057;28;20438;-77
2024/01/02 03:08:19;;;;;;;7.00;2.70;;;;;;;-146.82;100.00;71671.09;5061884;28;20457;-76
2024/01/02 03:10:45;;;;;;;8.63;2.50;;;;;;;-146.82;100.00;71671.09;5064906;28;20031;-76
2024/01/02 03:13:12;;;;;;;12.80;2.70;;;;;;;-146.82;100.00;71671.09;5049228;28;20173;-77
2024/01/02 03:15:37;;;;;;;4.75;2.70;;;;;;;-146.82;100.00;71671.09;5064381;28;20082;-77
2024/01/02 03:18:04;;;;;;;11.75;3.33;;;;;;;-146.82;100.00;71671.09;5066482;28;20020;-76
2024/01/02 03:20:30;;;;;;;8.93;3.40;;;;;;;-146.82;100.00;71671.09;5062329;28;20119;-75
2024/01/02 03:22:56;;;;;;;9.25;2.20;;;;;;;-146.82;100.00;71671.09;5057677;28;20028;-77
2024/01/02 03:25:30;;;;;;;8.35;2.65;;;;;;;-146.82;100.00;71671.09;5065220;28;20055;-77
2024/01/02 03:27:57;;;;;;;8.50;2.83;;;;;;;-146.82;100.00;71671.09;5064619;28;20049;-75
2024/01/02 03:30:24;;;;;;;6.32;3.00;;;;;;;-146.82;100.00;71671.09;5060739;28;20021;-74
2024/01/02 03:33:11;;;;;;;6.82;3.08;;;;;;;-146.82;100.00;71671.09;5068079;28;20549;-75
2024/01/02 03:35:38;;;;;;;7.50;2.50;;;;;;;-146.82;100.00;71671.09;5062599;28;20069;-77
2024/01/02 03:38:03;;;;;;;7.88;2.63;;;;;;;-146.82;100.00;71671.09;5062408;28;20107;-74
2024/01/02 03:40:29;;;;;;;8.40;2.70;;;;;;;-146.82;100.00;71671.09;5062476;28;20040;-75
2024/01/02 03:42:55;;;;;;;11.77;2.90;;;;;;;-146.82;100.00;71671.09;5063999;28;20036;-74
2024/01/02 03:45:21;;;;;;;7.85;2.97;;;;;;;-146.82;100.00;71671.09;5058726;28;20066;-76
2024/01/02 03:47:49;;;;;;;7.00;2.40;;;;;;;-146.82;100.00;71671.09;5059765;28;20106;-77
2024/01/02 03:50:17;;;;;;;3.80;2.17;;;;;;;-146.82;100.00;71671.09;5063132;28;20026;-76
2024/01/02 03:52:44;;;;;;;11.65;2.65;;;;;;;-146.82;100.00;71671.09;5055791;28;20016;-75
2024/01/02 03:55:13;;;;;;;7.35;3.25;;;;;;;-146.82;100.00;71671.09;5066893;28;20028;-78
2024/01/02 03:57:38;;;;;;;7.78;3.40;;;;;;;-146.82;100.00;71671.09;5057216;28;20017;-75
2024/01/02 04:00:05;;;;;;;10.10;3.45;;;;;;;-146.82;100.00;71671.09;5060162;28;20512;-75
2024/01/02 04:02:31;;;;;;;12.82;3.60;;;;;;;-146.82;100.00;71671.09;5061529;28;20020;-75
2024/01/02 04:04:58;;;;;;;7.97;3.58;;;;;;;-146.82;100.00;71671.09;5065005;28;20027;-76
2024/01/02 04:07:23;;;;;;;7.60;3.13;;;;;;;-146.82;100.00;71671.09;5062277;28;20028;-76
2024/01/02 04:09:51;;;;;;;8.68;3.70;;;;;;;-146.82;100.00;71671.09;5062160;28;20021;-76
2024/01/02 04:12:18;;;;;;;12.88;4.32;;;;;;;-146.82;100.00;71671.09;5052973;28;20020;-76
2024/01/02 04:14:44;;;;;;;11.85;4.20;;;;;;;-146.82;100.00;71671.09;5063688;28;20437;-74
2024/01/02 04:17:12;;;;;;;12.45;4.40;;;;;;;-146.82;100.00;71671.09;5066575;28;20013;-76
2024/01/02 04:19:38;;;;;;;12.85;3.80;;;;;;;-146.82;100.00;71671.09;5055985;28;20060;-75
2024/01/02 04:22:04;;;;;;;5.85;2.65;;;;;;;-146.82;100.00;71671.09;5064842;28;20032;-75
2024/01/02 04:24:37;;;;;;;8.43;3.25;;;;;;;-146.82;100.00;71671.09;5057989;28;20025;-77
2024/01/02 04:27:03;;;;;;;6.30;2.47;;;;;;;-146.82;100.00;71671.09;5056258;28;20054;-76
2024/01/02 04:29:30;;;;;;;7.35;2.72;;;;;;;-146.82;100.00;71671.09;5061199;28;20028;-76
2024/01/02 04:31:59;;;;;;;7.25;2.50;;;;;;;-146.82;100.00;71671.09;5061084;28;20450;-75
2024/01/02 04:34:39;;;;;;;9.00;2.85;;;;;;;-146.82;100.00;71671.09;5062927;28;20381;-75
2024/01/02 04:37:19;;;;;;;7.22;3.08;;;;;;;-146.82;100.00;71671.09;5062461;28;20024;-75
2024/01/02 04:39:46;;;;;;;8.27;3.75;;;;;;;-146.82;100.00;71671.09;5053189;28;20068;-75
2024/01/02 04:42:14;;;;;;;9.45;3.38;;;;;;;-146.82;100.00;71671.09;5057491;28;20048;-75
2024/01/02 04:44:39;;;;;;;7.35;2.67;;;;;;;-146.82;100.00;71671.09;5063520;28;20492;-75
2024/01/02 04:47:07;;;;;;;10.48;3.22;;;;;;;-146.82;100.00;71671.09;5060833;28;20095;-75
2024/01/02 04:49:37;;;;;;;9.40;3.17;;;;;;;-146.82;100.00;71671.09;5060495;28;20036;-75
2024/01/02 04:52:04;;;;;;;6.30;3.38;;;;;;;-146.82;100.00;71671.09;5064176;28;20032;-75
2024/01/02 04:54:32;;;;;;;11.23;3.55;;;;;;;-146.82;100.00;71671.09;5064188;28;20041;-75
2024/01/02 04:56:58;;;;;;;12.68;3.08;;;;;;;-146.82;100.00;71671.09;5059464;28;20012;-75
2024/01/02 04:59:24;;;;;;;9.93;3.38;;;;;;;-146.82;100.00;71671.09;5060122;28;20027;-75
2024/01/02 05:01:50;;;;;;;4.85;2.85;;;;;;;-146.82;100.00;71671.09;5064195;28;20147;-78
2024/01/02 05:04:18;;;;;;;9.35;4.30;;;;;;;-146.82;100.00;71671.09;5057789;28;20104;-76
2024/01/02 05:06:43;;;;;;;9.38;4.30;;;;;;;-146.82;100.00;71671.09;5061562;28;20477;-75
2024/01/02 05:09:12;;;;;;;7.20;3.85;;;;;;;-146.82;100.00;71671.09;5069925;28;20025;-76
2024/01/02 05:11:40;;;;;;;14.60;5.57;;;;;;;-146.82;100.00;71671.09;5061225;28;20021;-75
2024/01/02 05:14:06;;;;;;;15.20;5.63;;;;;;;-146.82;100.00;71671.09;5062123;28;20059;-74
2024/01/02 05:16:31;;;;;;;15.75;6.18;;;;;;;-146.82;100.00;71671.09;5067878;28;20070;-76
2024/01/02 05:18:58;;;;;;;15.73;5.68;;;;;;;-146.82;100.00;71671.09;5064858;28;20028;-75
2024/01/02 05:21:27;;;;;;;13.68;5.85;;;;;;;-146.82;100.00;71671.09;5068345;28;20020;-75
2024/01/02 05:23:52;;;;;;;14.25;5.25;;;;;;;-146.82;100.00;71671.09;5059930;28;20036;-75
2024/01/02 05:26:19;;;;;;;16.30;5.45;;;;;;;-146.82;100.00;71671.09;5062612;28;20056;-76
2024/01/02 05:28:45;;;;;;;9.23;4.38;;;;;;;-146.82;100.00;71671.09;5066155;28;20025;-76
2024/01/02 05:31:15;;;;;;;10.27;4.53;;;;;;;-146.82;100.00;71671.09;5067208;28;20085;-75
2024/01/02 05:33:44;;;;;;;16.40;5.05;;;;;;;-146.82;100.00;71671.09;5066540;28;20048;-77
2024/01/02 05:36:10;;;;;;;11.15;4.07;;;;;;;-146.82;100.00;71671.09;5062645;28;20112;-76
2024/01/02 05:38:35;;;;;;;10.00;3.58;;;;;;;-146.82;100.00;71671.09;5072945;28;20108;-77
2024/01/02 05:41:03;;;;;;;13.07;4.35;;;;;;;-146.82;100.00;71671.09;5065832;28;20032;-75
2024/01/02 05:43:29;;;;;;;7.47;3.80;;;;;;;-146.82;100.00;71671.09;5066436;28;20558;-76
2024/01/02 05:45:55;;;;;;;5.30;2.97;;;;;;;-146.82;100.00;71671.09;5062767;28;20025;-76
2024/01/02 05:48:21;;;;;;;7.28;3.80;;;;;;;-146.82;100.00;71671.09;5061330;28;20027;-77
2024/01/02 05:50:47;;;;;;;8.35;3.30;;;;;;;-146.82;100.00;71671.09;5064420;28;20020;-76
2024/01/02 05:53:14;;;;;;;8.80;3.90;;;;;;;-146.82;100.00;71671.09;5067125;28;20021;-77
2024/01/02 05:55:48;;;;;;;10.93;3.40;;;;;;;-146.82;100.00;71671.09;5064520;28;20021;-77
2024/01/02 05:58:14;;;;;;;8.68;3.65;;;;;;;-146.82;100.00;71671.09;5067191;28;20025;-79
2024/01/02 06:00:40;;;;;;;8.27;3.60;;;;;;;-146.82;100.00;71671.09;5050806;28;20036;-76
2024/01/02 06:03:08;;;;;;;9.43;3.30;;;;;;;-146.82;100.00;71671.09;5068151;28;20047;-79
2024/01/02 06:05:34;;;;;;;8.00;3.75;;;;;;;-146.82;100.00;71671.09;5065621;28;20150;-80
2024/01/02 06:07:59;;;;;;;5.25;2.75;;;;;;;-146.82;100.00;71671.09;5066094;28;20050;-78
2024/01/02 06:10:25;;;;;;;9.35;3.25;;;;;;;-146.82;100.00;71671.09;5068756;28;20094;-73
2024/01/02 06:12:50;;;;;;;10.00;3.70;;;;;;;-146.82;100.00;71671.09;5065349;28;20493;-73
2024/01/02 06:15:17;;;;;;;7.15;2.97;;;;;;;-146.82;100.00;71671.09;5060352;28;20020;-74
2024/01/02 06:17:43;;;;;;;10.15;3.85;;;;;;;-146.82;100.00;71671.09;5063690;28;20027;-76
2024/01/02 06:20:10;;;;;;;12.90;3.80;;;;;;;-146.82;100.00;71671.09;5065320;28;20099;-76
2024/01/02 06:22:37;;;;;;;13.35;3.83;;;;;;;-146.82;100.00;71671.09;5064662;28;20028;-74
2024/01/02 06:25:10;;;;;;;7.45;3.03;;;;;;;-146.82;100.00;71671.09;5036978;28;20045;-73
2024/01/02 06:27:36;;;;;;;10.60;3.35;;;;;;;-146.82;100.00;71671.09;5031099;28;20053;-74
2024/01/02 06:30:03;;;;;;;11.57;3.50;;;;;;;-146.82;100.00;71671.09;5031963;28;20069;-71
2024/01/02 06:32:30;;;;;;;13.32;4.47;;;;;;;-146.82;100.00;71671.09;5034719;28;20379;-73
2024/01/02 06:34:56;;;;;;;10.35;4.28;;;;;;;-146.82;100.00;71671.09;5034875;28;20071;-74
2024/01/02 06:37:22;;;;;;;11.70;4.00;;;;;;;-146.82;100.00;71671.09;5033286;28;20530;-74
2024/01/02 06:39:48;;;;;;;8.38;3.55;;;;;;;-146.82;100.00;71671.09;5034919;28;20390;-73
2024/01/02 06:42:13;;;;;;;12.27;3.63;;;;;;;-146.82;100.00;71671.09;5034838;28;20486;-74
2024/01/02 06:44:38;;;;;;;9.75;3.85;;;;;;;-146.82;100.00;71671.09;5034569;28;20029;-73
2024/01/02 06:47:04;;;;;;;11.65;3.67;;;;;;;-146.82;100.00;71671.09;5035121;28;20100;-74
2024/01/02 06:49:29;;;;;;;9.35;3.38;;;;;;;-146.82;100.00;71671.09;5034570;28;20459;-74
2024/01/02 06:51:54;;;;;;;7.07;3.65;;;;;;;-146.82;100.00;71671.09;5034472;28;20037;-74
2024/01/02 06:54:20;;;;;;;11.13;3.97;;;;;;;-146.82;100.00;71671.09;5049994;28;20083;-74
2024/01/02 06:56:45;;;;;;;13.30;3.60;;;;;;;-146.82;100.00;71671.09;5048359;28;20478;-75
2024/01/02 06:59:11;;;;;;;8.38;3.83;;;;;;;-146.82;100.00;71671.09;5052873;28;20120;-74
2024/01/02 07:01:36;;;;;;;15.77;4.00;;;;;;;-146.82;100.00;71671.09;5053007;28;20063;-75
2024/01/02 07:04:02;;;;;;;14.52;4.30;;;;;;;-146.82;100.00;71671.09;5054313;28;20029;-73
2024/01/02 07:06:27;;;;;;;9.05;3.78;;;;;;;-146.82;100.00;71671.09;5053110;28;20029;-79
2024/01/02 07:08:53;;;;;;;11.45;3.53;;;;;;;-146.82;100.00;71671.09;5053052;28;20059;-79
2024/01/02 07:11:18;;;;;;;8.57;3.80;;;;;;;-146.82;100.00;71671.09;5054026;28;20458;-80
2024/01/02 07:13:43;;;;;;;10.80;3.88;;;;;;;-146.82;100.00;71671.09;5054293;28;20075;-80
2024/01/02 07:16:09;;;;;;;11.27;4.53;;;;;;;-146.82;100.00;71671.09;5053642;28;20029;-79
2024/01/02 07:18:35;;;;;;;14.25;5.03;;;;;;;-146.82;100.00;71671.09;5054774;28;20033;-78
2024/01/02 07:21:00;;;;;;;10.30;4.68;;;;;;;-146.82;100.00;71671.09;5054100;28;20029;-79
2024/01/02 07:23:26;;;;;;;13.00;5.18;;;;;;;-146.82;100.00;71671.09;5053208;28;20163;-80
2024/01/02 07:25:52;;;;;;;10.70;5.05;;;;;;;-146.82;100.00;71671.09;5053092;28;20381;-80
2024/01/02 07:28:17;;;;;;;13.30;4.47;;;;;;;-146.82;100.00;71671.09;5051652;28;20129;-81
2024/01/02 07:30:43;;;;;;;27.48;7.47;;;;;;;-146.82;100.00;71671.09;5052679;28;20029;-81
2024/01/02 07:33:08;;;;;;;12.10;6.47;;;;;;;-146.82;100.00;71671.09;5034427;28;20497;-80
2024/01/02 07:35:34;;;;;;;16.73;6.25;;;;;;;-146.82;100.00;71671.09;5053953;28;20039;-78
2024/01/02 07:37:59;;;;;;;11.75;5.72;;;;;;;-146.82;100.00;71671.09;5056008;28;20037;-79
2024/01/02 07:40:25;;;;;;;15.00;6.15;;;;;;;-146.82;100.00;71671.09;5057183;28;20108;-81
2024/01/02 07:42:50;;;;;;;11.90;5.38;;;;;;;-146.82;100.00;71671.09;5057154;28;20021;-79
2024/01/02 07:45:16;;;;;;;20.52;6.47;;;;;;;-146.82;100.00;71671.09;5060183;28;20068;-81
2024/01/02 07:47:41;;;;;;;14.23;5.57;;;;;;;-146.82;100.00;71671.09;5059556;28;20497;-80
2024/01/02 07:50:07;;;;;;;14.63;5.57;;;;;;;-146.82;100.00;71671.09;5060513;28;20032;-80
2024/01/02 07:52:33;;;;;;;14.68;6.78;;;;;;;-146.82;100.00;71671.09;5054098;28;20040;-79
2024/01/02 07:54:59;;;;;;;13.85;7.03;;;;;;;-146.82;100.00;71671.09;5053716;28;20032;-81
2024/01/02 07:57:25;;;;;;;25.45;9.68;;;;;;;-146.82;100.00;71671.09;5054112;28;20475;-78
2024/01/02 07:59:50;;;;;;;27.83;9.93;;;;;;;-146.82;100.00;71671.09;5055048;28;20025;-81
2024/01/02 08:02:16;;;;;;;21.00;9.88;;;;;;;-146.82;100.00;71671.09;5054608;28;20108;-79
2024/01/02 08:04:41;;;;;;;22.10;9.75;;;;;;;-146.82;100.00;71671.09;5054551;28;20078;-80
2024/01/02 08:07:07;;;;;;;19.63;9.10;;;;;;;-146.82;100.00;71671.09;5054391;28;20029;-79
2024/01/02 08:09:33;;;;;;;15.95;8.10;;;;;;;-146.82;100.00;71671.09;5053657;28;20109;-79
2024/01/02 08:11:58;;;;;;;18.25;8.05;;;;;;;-146.82;100.00;71671.09;5052306;28;20029;-80
2024/01/02 08:14:24;;;;;;;16.95;7.05;;;;;;;-146.82;100.00;71671.09;5053165;28;20032;-80
2024/01/02 08:16:50;;;;;;;11.90;5.70;;;;;;;-146.82;100.00;71671.09;5052087;28;20033;-80
2024/01/02 08:19:16;;;;;;;16.13;6.68;;;;;;;-146.82;100.00;71671.09;5053290;28;20033;-80
2024/01/02 08:21:41;;;;;;;13.93;6.03;;;;;;;-146.82;100.00;71671.09;5053273;28;20105;-80
2024/01/02 08:24:07;;;;;;;14.10;6.47;;;;;;;-146.82;100.00;71671.09;5053232;28;20029;-79
2024/01/02 08:26:33;;;;;;;16.65;7.07;;;;;;;-146.82;100.00;71671.09;5052852;28;20127;-80
2024/01/02 08:28:58;;;;;;;16.27;6.30;;;;;;;-146.82;100.00;71671.09;5053368;28;20489;-81
2024/01/02 08:31:24;;;;;;;14.95;6.60;;;;;;;-146.82;100.00;71671.09;5053603;28;20033;-80
2024/01/02 08:33:49;;;;;;;16.75;6.38;;;;;;;-146.82;100.00;71671.09;5053415;28;20550;-80
2024/01/02 08:36:15;;;;;;;20.05;7.45;;;;;;;-146.82;100.00;71671.09;5053331;28;20029;-79
2024/01/02 08:38:41;;;;;;;17.23;6.95;;;;;;;-146.82;100.00;71671.09;5053013;28;20466;-80
2024/01/02 08:41:07;;;;;;;14.40;6.47;;;;;;;-146.82;100.00;71671.09;5053152;28;20025;-80
2024/01/02 08:43:32;;;;;;;15.70;6.60;;;;;;;-146.82;100.00;71671.09;5053654;28;20091;-79
2024/01/02 08:45:58;;;;;;;17.95;7.70;;;;;;;-146.82;100.00;71671.09;5056973;28;20021;-81
2024/01/02 08:48:23;;;;;;;16.80;7.25;;;;;;;-146.82;100.00;71671.09;5055747;28;20037;-80
2024/01/02 08:50:49;;;;;;;21.98;6.07;;;;;;;-146.82;100.00;71671.09;5056889;28;20051;-75
2024/01/02 08:53:15;;;;;;;12.80;6.50;;;;;;;-146.82;100.00;71671.09;5056770;28;20206;-75
2024/01/02 08:55:40;;;;;;;14.85;6.45;;;;;;;-146.82;100.00;71671.09;5055280;28;20033;-74
2024/01/02 08:58:06;;;;;;;20.00;6.90;;;;;;;-146.82;100.00;71671.09;5057226;28;20032;-76
2024/01/02 09:00:32;;;;;;;13.68;5.90;;;;;;;-146.82;100.00;71671.09;5056185;28;20024;-74
2024/01/02 09:03:00;;;;;;;14.20;6.57;;;;;;;-146.82;100.00;71671.09;5056614;28;20466;-73
2024/01/02 09:05:26;;;;;;;17.20;6.50;;;;;;;-146.82;100.00;71671.09;5056368;28;20027;-74
2024/01/02 09:07:52;;;;;;;18.75;6.28;;;;;;;-146.82;100.00;71671.09;5055110;28;20037;-74
2024/01/02 09:10:18;;;;;;;14.07;6.05;;;;;;;-146.82;100.00;71671.09;5056295;28;20429;-75
2024/01/02 09:12:43;;;;;;;19.80;7.82;;;;;;;-146.82;100.00;71671.09;5055118;28;20454;-74
2024/01/02 09:15:09;;;;;;;16.85;5.95;;;;;;;-146.82;100.00;71671.09;5056362;28;20071;-74
2024/01/02 09:17:34;;;;;;;17.38;6.53;;;;;;;-146.82;100.00;71671.09;5056499;28;20549;-73
2024/01/02 09:20:00;;;;;;;18.95;6.70;;;;;;;-146.82;100.00;71671.09;5055105;28;20021;-74
2024/01/02 09:22:25;;;;;;;14.95;6.88;;;;;;;-146.82;100.00;71671.09;5056118;28;20363;-75
2024/01/02 09:24:52;;;;;;;19.17;7.40;;;;;;;-146.82;100.00;71671.09;5054842;28;20021;-75
2024/01/02 09:27:18;;;;;;;24.48;8.88;;;;;;;-146.82;100.00;71671.09;5054692;28;20037;-75
2024/01/02 09:29:44;;;;;;;15.75;8.40;;;;;;;-146.82;100.00;71671.09;5056074;28;20025;-74
2024/01/02 09:32:10;;;;;;;18.92;7.80;;;;;;;-146.82;100.00;71671.09;5056064;28;20099;-74
2024/01/02 09:34:36;;;;;;;18.65;7.18;;;;;;;-146.82;100.00;71671.09;5055954;28;20029;-76
2024/01/02 09:37:04;;;;;;;21.98;7.82;;;;;;;-146.82;100.00;71671.09;5055732;28;20036;-75
2024/01/02 09:39:29;;;;;;;19.40;8.13;;;;;;;-146.82;100.00;71671.09;5037981;28;20040;-75
2024/01/02 09:42:03;;;;;;;18.52;6.78;;;;;;;-146.82;100.00;71671.09;5056098;28;20025;-74
2024/01/02 09:44:44;;;;;;;19.88;6.60;;;;;;;-146.82;100.00;71671.09;5055685;28;20056;-75
2024/01/02 09:47:31;;;;;;;21.40;7.22;;;;;;;-146.82;100.00;71671.09;5054529;28;20412;-74
2024/01/02 09:50:15;;;;;;;13.48;6.30;;;;;;;-146.82;100.00;71671.09;5054578;28;20028;-76
2024/01/02 09:53:09;;;;;;;15.82;4.93;;;;;;;-146.82;100.00;71671.09;5055737;28;20044;-74
2024/01/02 09:55:48;;;;;;;15.13;4.75;;;;;;;-146.82;100.00;71671.09;5055328;28;20081;-74
2024/01/02 09:58:21;;;;;;;13.73;4.80;;;;;;;-146.82;100.00;71671.09;5054189;28;20040;-73
2024/01/02 10:01:16;;;;;;;13.63;4.70;;;;;;;-146.82;100.00;71671.09;5055902;28;20020;-75
2024/01/02 10:04:03;;;;;;;15.15;4.45;;;;;;;-146.82;100.00;71671.09;5054044;28;20031;-76
2024/01/02 10:06:50;;;;;;;11.68;4.18;;;;;;;-146.82;100.00;71671.09;5055159;28;20065;-73
2024/01/02 10:09:46;;;;;;;15.05;4.20;;;;;;;-146.82;100.00;71671.09;5054029;28;20378;-75
2024/01/02 10:12:22;;;;;;;12.15;4.45;;;;;;;-146.82;100.00;71671.09;5055373;28;20059;-75
2024/01/02 10:14:56;;;;;;;12.38;3.80;;;;;;;-146.82;100.00;71671.09;5053788;28;20048;-75
2024/01/02 10:17:40;;;;;;;9.52;4.10;;;;;;;-146.82;100.00;71671.09;5055104;28;20037;-76
2024/01/02 10:20:17;;;;;;;9.10;3.90;;;;;;;-146.82;100.00;71671.09;5053745;28;20428;-77
2024/01/02 10:22:51;;;;;;;11.52;4.13;;;;;;;-146.82;100.00;71671.09;5054007;28;20492;-74
2024/01/02 10:25:18;;;;;;;9.32;4.10;;;;;;;-146.82;100.00;71671.09;5054892;28;20029;-74
2024/01/02 10:28:04;;;;;;;15.43;5.00;;;;;;;-146.82;100.00;71671.09;5054585;28;20041;-74
2024/01/02 10:30:36;;;;;;;11.93;5.30;;;;;;;-146.82;100.00;71671.09;5055199;28;20043;-74
2024/01/02 10:33:20;;;;;;;16.52;5.20;;;;;;;-146.82;100.00;71671.09;5055112;28;20025;-74
2024/01/02 10:36:01;;;;;;;15.95;5.25;;;;;;;-146.82;100.00;71671.09;5054649;28;20021;-75
2024/01/02 10:38:43;;;;;;;13.60;5.05;;;;;;;-146.82;100.00;71671.09;5054728;28;20087;-74
2024/01/02 10:41:36;;;;;;;26.52;6.35;;;;;;;-146.82;100.00;71671.09;5053756;28;20029;-75
2024/01/02 10:44:11;;;;;;;19.85;6.28;;;;;;;-146.82;100.00;71671.09;5053290;28;20490;-75
2024/01/02 10:46:47;;;;;;;13.73;3.95;;;;;;;-146.82;100.00;71671.09;5054477;28;20051;-74
2024/01/02 10:49:52;;;;;;;46.08;8.38;;;;;;;-146.82;100.00;71671.09;5053290;28;20029;-74
2024/01/02 10:52:40;;;;;;;14.35;4.28;;;;;;;-146.82;100.00;71671.09;5052494;28;20028;-76
2024/01/02 10:55:30;;;;;;;12.27;4.13;;;;;;;-146.82;100.00;71671.09;5035757;28;20032;-75
2024/01/02 10:58:03;;;;;;;13.95;4.32;;;;;;;-146.82;100.00;71671.09;5048847;28;20045;-75
2024/01/02 11:00:32;;;;;;;7.53;3.83;;;;;;;-146.82;100.00;71671.09;5054184;28;20090;-75
2024/01/02 11:03:11;;;;;;;12.27;4.97;;;;;;;-146.82;100.00;71671.09;5054882;28;20028;-76
2024/01/02 11:05:44;;;;;;;11.00;4.68;;;;;;;-146.82;100.00;71671.09;5052850;28;20423;-75
2024/01/02 11:08:21;;;;;;;16.08;5.00;;;;;;;-146.82;100.00;71671.09;5053305;28;20071;-75
2024/01/02 11:10:57;;;;;;;14.27;5.32;;;;;;;-146.82;100.00;71671.09;5053707;28;20087;-75